Thursday, January 18, 2018, 12:09 AM GMT
Back to Local

CWWE, Western Head, N. S.

Location: , , Canada Lat: 43.983
Local Time: 12:09 AM GMT ( 0:09 GMT) Lon: -64.667
Time Zone: GMT Elev: 29 ft

Show me the last for .
Show Decoded

2018-01-17 23:00 METAR CWWE 172300Z AUTO 05012G19KT M00/ RMK AO1 6PAST HR SOG 12 7052 PK WND
                 08021/2206 SLP179 P0010 T1002 50101 =
2018-01-17 22:00 METAR CWWE 172200Z AUTO 06012G20KT M00/ RMK AO1 3PAST HR PRESFR SOG 11 8046 PK
                 WND 06020/2155 SLP194 P0009 T1002 50075 =
2018-01-17 21:00 METAR CWWE 172100Z AUTO 05010G16KT 00/ RMK AO1 0PAST HR SOG 14 8029 SLP216 P0008
                 T0000 50052 =
2018-01-17 20:00 METAR CWWE 172000Z AUTO 06008KT M00/M00 RMK AO1 1PAST HR SOG 50 6027 SLP231
                 P0008 T10011001 50032 =
2018-01-17 19:00 METAR CWWE 171900Z AUTO 07008KT M01/M01 RMK AO1 1PAST HR SOG 12 6045 PK WND
                 09017/1816 SLP240 P0004 T10061006 50011 =
2018-01-17 18:00 METAR CWWE 171800Z AUTO 09013KT M01/M01 RMK AO1 6PAST HR SOG 09 6060 SLP245
                 P0002 T10071007 50030 =
2018-01-17 17:00 METAR CWWE 171700Z AUTO 08011KT M01/M01 RMK AO1 5PAST HR PRESFR SOG 10 8056
                 SLP258 P0002 T10101010 50024 =
2018-01-17 16:00 METAR CWWE 171600Z AUTO 10010KT M01/M01 RMK AO1 4PAST HR PRESFR SOG 10 8025 PK
                 WND 12018/1510 SLP285 P0002 T10121012 50019 =
2018-01-17 15:00 METAR CWWE 171500Z AUTO 13015KT M01/M01 RMK AO1 4PAST HR SOG 07 8011 PK WND
                 14018/1451 SLP305 P0002 T10101010 50014 =
2018-01-17 14:00 METAR CWWE 171400Z AUTO 13009KT M01/M01 RMK AO1 3PAST HR SOG 24 5006 SLP314
                 P0001 T10131014 50010 =
2018-01-17 13:00 METAR CWWE 171300Z AUTO 12008KT M02/M02 RMK AO1 8PAST HR SOG 05 8008 SLP310
                 P0003 T10181019 50008 =
2018-01-17 12:00 METAR CWWE 171200Z AUTO 10004KT M02/M03 RMK AO1 1PAST HR SOG 05 8004 SLP316
                 P0004 T10151027 50022 =
2018-01-17 11:00 METAR CWWE 171100Z AUTO 05002KT M03/M03 RMK AO1 5PAST HR SOG 01 1009 SLP320
                 P0002 T10301034 50011 =
2018-01-17 10:00 METAR CWWE 171000Z AUTO 02001KT M04/M05 RMK AO1 6PAST HR SOG 02 5000 SLP318
                 P0002 T10431050 50006 =
2018-01-17 09:00 METAR CWWE 170900Z AUTO 05001KT M04/M05 RMK AO1 SOG 02 3006 SLP320 T10361049 =
2018-01-17 08:00 METAR CWWE 170800Z AUTO 03002KT M04/M05 RMK AO1 SOG 02 8006 SLP311 T10351052 =
2018-01-17 07:00 METAR CWWE 170700Z AUTO 25002KT M07/M07 RMK AO1 SOG 02 5007 SLP318 T10651073 =
2018-01-17 06:00 METAR CWWE 170600Z AUTO 35004KT M06/M07 RMK AO1 SOG 02 8009 SLP314 T10621070 =
2018-01-17 05:00 METAR CWWE 170500Z AUTO 32003KT M08/M08 RMK AO1 SOG 02 8009 SLP317 T10761079 =
2018-01-17 04:00 METAR CWWE 170400Z AUTO 30003KT M08/M08 RMK AO1 SOG 02 5002 SLP325 T10771075 =
2018-01-17 03:00 METAR CWWE 170300Z AUTO 32004KT M07/M08 RMK AO1 SOG 02 8002 SLP323 T10651081 =
2018-01-17 02:00 METAR CWWE 170200Z AUTO 28004KT M07/M08 RMK AO1 SOG 02 0007 SLP326 T10711080 =
2018-01-17 01:00 METAR CWWE 170100Z AUTO 27005KT M06/M07 RMK AO1 SOG 02 1013 SLP327 T10591070 =

Support USWX by starting your Amazon purchase here.